This is the latest recevied weather packets stored in our database for station/object EB2EMZ-W. If no packets are shown the sender has not sent any weather packets the latest 10 day(s).
| Time | Temp. | Humidity | Pressure | Rain* | Wind** | Luminosity | Snow |
|---|---|---|---|---|---|---|---|
| 1787937495 | 26.11° C | 23% | 1003 hPa | 0 mm | - | - | - |
| 1787935675 | 36.11° C | 13% | 1003 hPa | 0 mm | - | - | - |
| 1787933854 | 41.11° C | 9% | 1003 hPa | 0 mm | - | - | - |
| 1787932033 | 42.22° C | 8% | 1003 hPa | 0 mm | - | - | - |
| 1787930214 | 35° C | 16% | 1003 hPa | 0 mm | - | - | - |
| 1787928392 | 27.22° C | 20% | 1003 hPa | 0 mm | - | - | - |
| 1787926573 | 27.78° C | 20% | 1003 hPa | 0 mm | - | - | - |
| 1787924752 | 29.44° C | 19% | 1003 hPa | 0 mm | - | - | - |
| 1787922932 | 28.33° C | 19% | 1003 hPa | 0 mm | - | - | - |
| 1787921112 | 27.22° C | 20% | 1002 hPa | 0 mm | - | - | - |
| 1787919291 | 26.67° C | 20% | 1002 hPa | 0 mm | - | - | - |
| 1787917471 | 26.11° C | 20% | 1002 hPa | 0 mm | - | - | - |
| 1787915651 | 26.11° C | 21% | 1002 hPa | 0 mm | - | - | - |
| 1787913831 | 25° C | 22% | 1002 hPa | 0 mm | - | - | - |
| 1787912011 | 24.44° C | 22% | 1002 hPa | 0 mm | - | - | - |
| 1787910190 | 23.89° C | 23% | 1002 hPa | 0 mm | - | - | - |
| 1787908370 | 22.78° C | 25% | 1002 hPa | 0 mm | - | - | - |
| 1787906552 | 21.67° C | 26% | 1002 hPa | 0 mm | - | - | - |
| 1787904731 | 21.67° C | 29% | 1002 hPa | 0 mm | - | - | - |
| 1787902910 | 20° C | 33% | 1002 hPa | 0 mm | - | - | - |
| 1787901090 | 18.89° C | 34% | 1001 hPa | 0 mm | - | - | - |
| 1787899270 | 18.33° C | 37% | 1001 hPa | 0 mm | - | - | - |
| 1787897450 | 16.67° C | 45% | 1001 hPa | 0 mm | - | - | - |
| 1787895630 | 17.22° C | 39% | 1001 hPa | 0 mm | - | - | - |
| 1787893809 | 17.78° C | 37% | 1001 hPa | 0 mm | - | - | - |
* Rain latest hour (hover to see other rain measurements)
** Current wind speed in m/s (hover to see current wind gust speed)